Time;durP1;ratioP1;P1;durP2;ratioP2;P2;SDS_P1;SDS_P2;PMS_P1;PMS_P2;Temp;Humidity;BMP_temperature;BMP_pressure;BME280_temperature;BME280_humidity;BME280_pressure;Samples;Min_cycle;Max_cycle;Signal;HPM_P1;HPM_P2
2023/09/05 00:00:19;;;;;;;1999.90;999.90;;;14.40;99.90;;;;;;5042332;28;20037;-75
2023/09/05 00:02:48;;;;;;;1999.90;999.90;;;14.40;99.90;;;;;;5041972;28;20041;-77
2023/09/05 00:05:13;;;;;;;1999.90;999.90;;;14.30;99.90;;;;;;5041360;28;20037;-77
2023/09/05 00:07:40;;;;;;;1999.90;999.90;;;14.30;99.90;;;;;;5061125;22;20049;-73
2023/09/05 00:10:07;;;;;;;1999.90;999.90;;;14.30;99.90;;;;;;5034465;28;20045;-73
2023/09/05 00:12:32;;;;;;;1999.90;999.90;;;14.20;99.90;;;;;;5036213;28;20466;-73
2023/09/05 00:14:58;;;;;;;1999.90;999.90;;;14.30;99.90;;;;;;5036275;28;20033;-73
2023/09/05 00:17:24;;;;;;;1999.90;999.90;;;14.10;99.90;;;;;;5036337;28;20034;-73
2023/09/05 00:19:51;;;;;;;1999.90;999.90;;;14.10;99.90;;;;;;5035132;28;20049;-73
2023/09/05 00:22:20;;;;;;;1999.90;999.90;;;14.10;99.90;;;;;;5036360;28;20519;-73
2023/09/05 00:24:45;;;;;;;1999.90;999.90;;;14.00;99.90;;;;;;5036185;28;20049;-73
2023/09/05 00:27:14;;;;;;;1999.90;999.90;;;14.00;99.90;;;;;;5036368;28;20026;-73
2023/09/05 00:29:42;;;;;;;1999.90;999.90;;;14.00;99.90;;;;;;5036439;28;20041;-73
2023/09/05 00:32:09;;;;;;;1999.90;999.90;;;13.90;99.90;;;;;;5036211;28;20521;-73
2023/09/05 00:34:36;;;;;;;1999.90;999.90;;;13.90;99.90;;;;;;5035943;28;20034;-73
2023/09/05 00:37:06;;;;;;;1999.90;999.90;;;13.90;99.90;;;;;;5035816;28;20075;-73
2023/09/05 00:39:33;;;;;;;1999.90;999.90;;;13.80;99.90;;;;;;5036154;28;20042;-73
2023/09/05 00:42:05;;;;;;;1999.90;999.90;;;13.80;99.90;;;;;;5036269;28;20034;-73
2023/09/05 00:44:31;;;;;;;1999.90;999.90;;;13.80;99.90;;;;;;5034371;28;20053;-73
2023/09/05 00:47:00;;;;;;;1999.90;999.90;;;13.80;99.90;;;;;;5035721;28;20037;-73
2023/09/05 00:49:29;;;;;;;1999.90;999.90;;;13.80;99.90;;;;;;5036046;28;20033;-73
2023/09/05 00:51:57;;;;;;;1999.90;999.90;;;13.80;99.90;;;;;;5035942;28;20068;-73
2023/09/05 00:54:23;;;;;;;1999.90;999.90;;;13.80;99.90;;;;;;5035931;28;20451;-73
2023/09/05 00:56:49;;;;;;;1999.90;999.90;;;13.80;99.90;;;;;;5035724;28;20518;-73
2023/09/05 00:59:15;;;;;;;1999.90;999.90;;;13.70;99.90;;;;;;5035587;28;20038;-73
2023/09/05 01:01:41;;;;;;;1999.90;999.90;;;13.70;99.90;;;;;;5035530;28;20470;-73
2023/09/05 01:04:07;;;;;;;1999.90;999.90;;;13.70;99.90;;;;;;5034099;28;20083;-73
2023/09/05 01:06:51;;;;;;;1999.90;999.90;;;13.80;99.90;;;;;;5035893;28;20059;-73
2023/09/05 01:09:35;;;;;;;1999.90;999.90;;;13.90;99.90;;;;;;5033930;28;20125;-73
2023/09/05 01:12:02;;;;;;;1999.90;999.90;;;13.80;99.90;;;;;;5034013;28;20138;-73
2023/09/05 01:14:27;;;;;;;1999.90;999.90;;;13.90;99.90;;;;;;5035181;28;20048;-73
2023/09/05 01:17:01;;;;;;;1999.90;999.90;;;13.90;99.90;;;;;;5035633;28;20036;-73
2023/09/05 01:19:28;;;;;;;1999.90;999.90;;;13.80;99.90;;;;;;5035821;28;20038;-73
2023/09/05 01:22:01;;;;;;;1999.90;999.90;;;13.70;99.90;;;;;;5035242;28;20033;-73
2023/09/05 01:24:26;;;;;;;1999.90;999.90;;;13.70;99.90;;;;;;5034274;28;20037;-73
2023/09/05 01:26:53;;;;;;;1999.90;999.90;;;13.60;99.90;;;;;;5035151;28;20025;-73
2023/09/05 01:29:25;;;;;;;1999.90;999.90;;;13.60;99.90;;;;;;5035403;28;20057;-73
2023/09/05 01:31:52;;;;;;;1999.90;999.90;;;13.70;99.90;;;;;;5033800;28;20038;-73
2023/09/05 01:34:18;;;;;;;1999.90;999.90;;;13.60;99.90;;;;;;5033363;28;20040;-73
2023/09/05 01:36:43;;;;;;;1999.90;999.90;;;13.50;99.90;;;;;;5034983;28;20034;-73
2023/09/05 01:39:09;;;;;;;1999.90;999.90;;;13.50;99.90;;;;;;5035112;28;20037;-73
2023/09/05 01:41:34;;;;;;;1999.90;999.90;;;13.50;99.90;;;;;;5033830;28;20038;-73
2023/09/05 01:44:00;;;;;;;1999.90;999.90;;;13.50;99.90;;;;;;5034914;28;20148;-73
2023/09/05 01:46:26;;;;;;;1999.90;999.90;;;13.40;99.90;;;;;;5035083;28;20519;-73
2023/09/05 01:48:51;;;;;;;1999.90;999.90;;;13.20;99.90;;;;;;5034736;28;20168;-73
2023/09/05 01:51:17;;;;;;;1999.90;999.90;;;13.30;99.90;;;;;;5034873;28;20483;-73
2023/09/05 01:53:42;;;;;;;1999.90;999.90;;;13.30;99.90;;;;;;5034972;28;20041;-73
2023/09/05 01:56:08;;;;;;;1999.90;999.90;;;13.30;99.90;;;;;;5034906;28;20056;-73
2023/09/05 01:58:33;;;;;;;1999.90;999.90;;;13.30;99.90;;;;;;5034607;28;20080;-73
2023/09/05 02:01:03;;;;;;;1999.90;999.90;;;13.30;99.90;;;;;;5034998;28;20076;-73
2023/09/05 02:03:29;;;;;;;1999.90;999.90;;;13.30;99.90;;;;;;5034977;28;20087;-73
2023/09/05 02:05:54;;;;;;;1999.90;999.90;;;13.30;99.90;;;;;;5033174;28;20545;-73
2023/09/05 02:08:20;;;;;;;1999.90;999.90;;;13.20;99.90;;;;;;5032420;28;20595;-73
2023/09/05 02:10:46;;;;;;;1999.90;999.90;;;13.20;99.90;;;;;;5034869;28;20534;-73
2023/09/05 02:13:12;;;;;;;1999.90;999.90;;;13.20;99.90;;;;;;5034808;28;20038;-74
2023/09/05 02:15:38;;;;;;;1999.90;999.90;;;13.20;99.90;;;;;;5034444;28;20026;-73
2023/09/05 02:18:07;;;;;;;1999.90;999.90;;;13.20;99.90;;;;;;5034668;28;20041;-73
2023/09/05 02:20:32;;;;;;;1999.90;999.90;;;13.10;99.90;;;;;;5033820;28;20117;-73
2023/09/05 02:22:58;;;;;;;1999.90;999.90;;;13.20;99.90;;;;;;5034866;28;20402;-73
2023/09/05 02:25:23;;;;;;;1999.90;999.90;;;13.20;99.90;;;;;;5034380;28;20037;-73
2023/09/05 02:27:49;;;;;;;1999.90;999.90;;;13.10;99.90;;;;;;5032931;28;20054;-73
2023/09/05 02:30:16;;;;;;;1999.90;999.90;;;13.10;99.90;;;;;;5034666;28;20201;-73
2023/09/05 02:32:43;;;;;;;1999.90;999.90;;;13.10;99.90;;;;;;5034399;28;20033;-73
2023/09/05 02:35:09;;;;;;;1999.90;999.90;;;13.10;99.90;;;;;;5032609;28;20030;-73
2023/09/05 02:37:34;;;;;;;1999.90;999.90;;;13.10;99.90;;;;;;5034098;28;20034;-73
2023/09/05 02:40:00;;;;;;;1999.90;999.90;;;13.10;99.90;;;;;;5034514;28;20112;-73
2023/09/05 02:42:25;;;;;;;1999.90;999.90;;;13.00;99.90;;;;;;5032896;28;20038;-73
2023/09/05 02:44:52;;;;;;;1999.90;999.90;;;12.90;99.90;;;;;;5034276;28;20050;-73
2023/09/05 02:47:17;;;;;;;1999.90;999.90;;;12.90;99.90;;;;;;5032566;28;20502;-73
2023/09/05 02:49:43;;;;;;;1999.90;999.90;;;12.80;99.90;;;;;;5032698;28;20037;-73
2023/09/05 02:52:08;;;;;;;1999.90;999.90;;;12.80;99.90;;;;;;5034356;28;20550;-73
2023/09/05 02:54:34;;;;;;;1999.90;999.90;;;12.80;99.90;;;;;;5034059;28;20038;-73
2023/09/05 02:56:59;;;;;;;1999.90;999.90;;;12.80;99.90;;;;;;5033773;28;20034;-73
2023/09/05 02:59:25;;;;;;;1999.90;999.90;;;12.80;99.90;;;;;;5034145;28;20105;-73
2023/09/05 03:01:50;;;;;;;1999.90;999.90;;;12.90;99.90;;;;;;5034183;28;20037;-73
2023/09/05 03:04:16;;;;;;;1999.90;999.90;;;12.80;99.90;;;;;;5033704;28;20034;-73
2023/09/05 03:06:41;;;;;;;1999.90;999.90;;;12.80;99.90;;;;;;5034127;28;20034;-73
2023/09/05 03:09:07;;;;;;;1999.90;999.90;;;12.70;99.90;;;;;;5032520;28;20092;-73
2023/09/05 03:11:33;;;;;;;1999.90;999.90;;;12.70;99.90;;;;;;5034117;28;20037;-73
2023/09/05 03:13:58;;;;;;;1999.90;999.90;;;12.70;99.90;;;;;;5033433;28;20369;-73
2023/09/05 03:16:24;;;;;;;1999.90;999.90;;;12.70;99.90;;;;;;5033993;28;20030;-73
2023/09/05 03:18:50;;;;;;;1999.90;999.90;;;12.60;99.90;;;;;;5033800;28;20049;-73
2023/09/05 03:21:16;;;;;;;1999.90;999.90;;;12.50;99.90;;;;;;5033803;28;20038;-73
2023/09/05 03:23:42;;;;;;;1999.90;999.90;;;12.50;99.90;;;;;;5032256;28;20042;-73
2023/09/05 03:26:08;;;;;;;1999.90;999.90;;;12.50;99.90;;;;;;5033572;28;20100;-73
2023/09/05 03:28:41;;;;;;;1999.90;999.90;;;12.50;99.90;;;;;;5032290;28;20034;-73
2023/09/05 03:31:07;;;;;;;1999.90;999.90;;;12.50;99.90;;;;;;5034031;28;20068;-73
2023/09/05 03:33:33;;;;;;;1999.90;999.90;;;12.50;99.90;;;;;;5037009;28;20607;-73
2023/09/05 03:35:58;;;;;;;1999.90;999.90;;;12.50;99.90;;;;;;5035451;28;20060;-73
2023/09/05 03:38:24;;;;;;;1999.90;999.90;;;12.50;99.90;;;;;;5036967;28;20042;-73
2023/09/05 03:40:49;;;;;;;1999.90;999.90;;;12.50;99.90;;;;;;5037190;28;20426;-73
2023/09/05 03:43:15;;;;;;;1999.90;999.90;;;12.50;99.90;;;;;;5037112;28;20053;-74
2023/09/05 03:45:41;;;;;;;1999.90;999.90;;;12.50;99.90;;;;;;5036775;28;20492;-73
2023/09/05 03:48:06;;;;;;;1999.90;999.90;;;12.40;99.90;;;;;;5036616;28;20034;-73
2023/09/05 03:50:32;;;;;;;1999.90;999.90;;;12.40;99.90;;;;;;5036835;28;20030;-73
2023/09/05 03:52:57;;;;;;;1999.90;999.90;;;12.40;99.90;;;;;;5037002;28;20032;-73
2023/09/05 03:55:23;;;;;;;1999.90;999.90;;;12.40;99.90;;;;;;5036475;28;20471;-73
2023/09/05 03:57:49;;;;;;;1999.90;999.90;;;12.40;99.90;;;;;;5036484;28;20065;-73
2023/09/05 04:00:14;;;;;;;1999.90;999.90;;;12.40;99.90;;;;;;5036869;28;20088;-73
2023/09/05 04:02:40;;;;;;;1999.90;999.90;;;12.40;99.90;;;;;;5036767;28;20034;-73
2023/09/05 04:05:07;;;;;;;1999.90;999.90;;;12.40;99.90;;;;;;5036315;28;20445;-73
2023/09/05 04:07:34;;;;;;;1999.90;999.90;;;12.40;99.90;;;;;;5036230;28;20037;-73
2023/09/05 04:09:59;;;;;;;1999.90;999.90;;;12.30;99.90;;;;;;5036577;28;20045;-73
2023/09/05 04:12:25;;;;;;;1999.90;999.90;;;12.30;99.90;;;;;;5035131;28;20309;-73
2023/09/05 04:14:51;;;;;;;1999.90;999.90;;;12.20;99.90;;;;;;5034877;28;20415;-73
2023/09/05 04:17:16;;;;;;;1999.90;999.90;;;12.20;99.90;;;;;;5036049;28;20026;-73
2023/09/05 04:19:42;;;;;;;1999.90;999.90;;;12.10;99.90;;;;;;5036445;28;20046;-73
2023/09/05 04:22:07;;;;;;;1999.90;999.90;;;12.10;99.90;;;;;;5034965;28;20109;-73
2023/09/05 04:24:33;;;;;;;1999.90;999.90;;;12.10;99.90;;;;;;5036051;28;20040;-73
2023/09/05 04:26:59;;;;;;;1999.90;999.90;;;12.10;99.90;;;;;;5036264;28;20033;-73
2023/09/05 04:29:25;;;;;;;1999.90;999.90;;;12.10;99.90;;;;;;5036341;28;20057;-73
2023/09/05 04:31:50;;;;;;;1999.90;999.90;;;12.00;99.90;;;;;;5034622;28;20037;-73
2023/09/05 04:34:17;;;;;;;1999.90;999.90;;;11.90;99.90;;;;;;5036103;28;20041;-73
2023/09/05 04:36:42;;;;;;;1999.90;999.90;;;12.00;99.90;;;;;;5036247;28;20030;-73
2023/09/05 04:39:08;;;;;;;1999.90;999.90;;;12.00;99.90;;;;;;5036013;28;20045;-73
2023/09/05 04:41:34;;;;;;;1999.90;999.90;;;12.00;99.90;;;;;;5036219;28;20037;-73
2023/09/05 04:43:59;;;;;;;1999.90;999.90;;;12.00;99.90;;;;;;5035411;28;20034;-73
2023/09/05 04:46:25;;;;;;;1999.90;999.90;;;12.00;99.90;;;;;;5035814;28;20033;-73
2023/09/05 04:48:50;;;;;;;1999.90;999.90;;;11.90;99.90;;;;;;5035707;28;20373;-73
2023/09/05 04:51:16;;;;;;;1999.90;999.90;;;12.00;99.90;;;;;;5036030;28;20483;-73
2023/09/05 04:53:41;;;;;;;1999.90;999.90;;;12.00;99.90;;;;;;5034372;28;20505;-73
2023/09/05 04:56:07;;;;;;;1999.90;999.90;;;12.00;99.90;;;;;;5036030;28;20034;-73
2023/09/05 04:58:33;;;;;;;1999.90;999.90;;;12.00;99.90;;;;;;5035633;28;20125;-72
2023/09/05 05:01:02;;;;;;;1999.90;999.90;;;11.90;99.90;;;;;;5035933;28;20026;-73
2023/09/05 05:03:32;;;;;;;1999.90;999.90;;;12.10;99.90;;;;;;5034249;28;20514;-73
2023/09/05 05:05:58;;;;;;;1999.90;999.90;;;12.10;99.90;;;;;;5035378;28;20106;-73
2023/09/05 05:08:24;;;;;;;1999.90;999.90;;;12.20;99.90;;;;;;5033090;28;20036;-72
2023/09/05 05:10:50;;;;;;;1999.90;999.90;;;12.20;99.90;;;;;;5034072;28;20480;-73
2023/09/05 05:13:16;;;;;;;1999.90;999.90;;;12.30;99.90;;;;;;5035653;28;20112;-73
2023/09/05 05:15:45;;;;;;;1999.90;999.90;;;12.30;99.90;;;;;;5035120;28;20113;-73
2023/09/05 05:18:11;;;;;;;1999.90;999.90;;;12.30;99.90;;;;;;5035491;28;20041;-73
2023/09/05 05:20:37;;;;;;;1999.90;999.90;;;12.30;99.90;;;;;;5035468;28;20484;-73
2023/09/05 05:23:04;;;;;;;1999.90;999.90;;;12.40;99.90;;;;;;5035787;28;20081;-74
2023/09/05 05:25:33;;;;;;;1999.90;999.90;;;12.40;99.90;;;;;;5035015;28;20113;-75
2023/09/05 05:27:58;;;;;;;1999.90;999.90;;;12.50;99.90;;;;;;5033832;28;20084;-73
2023/09/05 05:30:24;;;;;;;1999.90;999.90;;;12.50;99.90;;;;;;5035345;28;20113;-74
2023/09/05 05:32:50;;;;;;;1999.90;999.90;;;12.60;99.90;;;;;;5035531;28;20121;-74
2023/09/05 05:35:15;;;;;;;1999.90;999.90;;;12.70;99.90;;;;;;5035529;28;20554;-74
2023/09/05 05:37:41;;;;;;;1999.90;999.90;;;12.70;99.90;;;;;;5034024;28;20088;-74
2023/09/05 05:40:07;;;;;;;1999.90;999.90;;;12.80;99.90;;;;;;5032731;28;20097;-74
2023/09/05 05:42:33;;;;;;;1999.90;999.90;;;12.90;99.90;;;;;;5034920;28;20038;-78
2023/09/05 05:44:58;;;;;;;1999.90;999.90;;;13.00;99.90;;;;;;5034545;28;20097;-73
2023/09/05 05:47:24;;;;;;;1999.90;999.90;;;13.20;99.90;;;;;;5033104;28;20034;-74
2023/09/05 05:49:50;;;;;;;1999.90;999.90;;;13.10;99.90;;;;;;5035077;28;20122;-78
2023/09/05 05:52:16;;;;;;;1999.90;999.90;;;13.20;99.90;;;;;;5034934;28;20034;-77
2023/09/05 05:54:41;;;;;;;1999.90;999.90;;;13.20;99.90;;;;;;5034148;28;20038;-76
2023/09/05 05:57:07;;;;;;;1999.90;999.90;;;13.20;99.90;;;;;;5034675;28;20444;-79
2023/09/05 05:59:32;;;;;;;1999.90;999.90;;;13.20;99.90;;;;;;5036952;28;20045;-79
2023/09/05 06:01:59;;;;;;;1999.90;999.90;;;13.30;99.90;;;;;;5037975;28;20121;-79
2023/09/05 06:04:24;;;;;;;1999.90;999.90;;;13.30;99.90;;;;;;5036696;28;20038;-83
2023/09/05 06:06:50;;;;;;;1999.90;999.90;;;13.50;99.90;;;;;;5014531;28;20034;-85
2023/09/05 06:09:19;;;;;;;1999.90;999.90;;;13.50;99.90;;;;;;5039396;22;20053;-78
2023/09/05 06:11:46;;;;;;;1999.90;999.90;;;13.60;99.90;;;;;;5016072;28;20042;-79
2023/09/05 06:14:13;;;;;;;1999.90;999.90;;;13.70;99.90;;;;;;5016021;28;20030;-79
2023/09/05 06:16:39;;;;;;;1999.90;999.90;;;13.70;99.90;;;;;;5031051;28;20031;-80
2023/09/05 06:19:04;;;;;;;1999.90;999.90;;;14.10;99.90;;;;;;5016515;28;20038;-78
2023/09/05 06:21:30;;;;;;;1999.90;999.90;;;14.10;99.90;;;;;;5015315;28;20034;-78
2023/09/05 06:23:55;;;;;;;1999.90;999.90;;;14.20;99.90;;;;;;5015601;28;20039;-77
2023/09/05 06:26:21;;;;;;;1999.90;999.90;;;14.40;99.90;;;;;;5026485;28;20039;-77
2023/09/05 06:28:48;;;;;;;1999.90;999.90;;;14.50;99.90;;;;;;5023275;28;20154;-77
2023/09/05 06:31:14;;;;;;;1999.90;999.90;;;14.60;99.90;;;;;;5014874;28;20500;-77
2023/09/05 06:33:39;;;;;;;1999.90;999.90;;;14.90;99.90;;;;;;5014251;28;20093;-78
2023/09/05 06:36:06;;;;;;;1999.90;999.90;;;15.10;99.90;;;;;;5018467;28;20100;-79
2023/09/05 06:38:33;;;;;;;1999.90;999.90;;;15.30;99.90;;;;;;5035041;28;20511;-77
2023/09/05 06:41:05;;;;;;;1999.90;999.90;;;15.40;99.90;;;;;;5017267;28;20041;-77
2023/09/05 06:43:30;;;;;;;1999.90;999.90;;;15.60;99.90;;;;;;5013652;28;20042;-78
2023/09/05 06:46:07;;;;;;;1999.90;999.90;;;15.60;99.90;;;;;;5029707;28;20414;-78
2023/09/05 06:48:34;;;;;;;1999.90;999.90;;;16.00;99.90;;;;;;5013849;28;20031;-82
2023/09/05 06:51:00;;;;;;;1999.90;999.90;;;16.00;99.90;;;;;;5020460;28;20030;-79
2023/09/05 06:53:29;;;;;;;1999.90;999.90;;;16.00;99.90;;;;;;5036459;28;20050;-76
2023/09/05 06:55:55;;;;;;;1999.90;999.90;;;16.10;99.90;;;;;;5034173;28;20080;-78
2023/09/05 06:58:25;;;;;;;1999.90;999.90;;;16.20;99.90;;;;;;5034085;28;20094;-78
2023/09/05 07:00:55;;;;;;;1999.90;999.90;;;16.30;99.90;;;;;;5018625;28;20038;-78
2023/09/05 07:03:22;;;;;;;1999.90;999.90;;;16.40;99.90;;;;;;5012881;28;20117;-76
2023/09/05 07:05:48;;;;;;;1999.90;999.90;;;16.60;99.90;;;;;;5023486;28;20033;-78
2023/09/05 07:08:13;;;;;;;1999.90;999.90;;;16.80;99.90;;;;;;5036837;28;20045;-76
2023/09/05 07:10:39;;;;;;;1999.90;999.90;;;17.00;99.90;;;;;;5037865;28;20061;-76
2023/09/05 07:13:04;;;;;;;1999.90;999.90;;;17.20;99.90;;;;;;5037587;28;20387;-75
2023/09/05 07:15:30;;;;;;;1999.90;999.90;;;17.30;99.90;;;;;;5037512;28;20391;-76
2023/09/05 07:17:55;;;;;;;1999.90;999.90;;;17.60;99.90;;;;;;5034977;28;20034;-76
2023/09/05 07:20:21;;;;;;;1999.90;999.90;;;17.90;99.90;;;;;;5037427;28;20034;-75
2023/09/05 07:22:47;;;;;;;1999.90;999.90;;;18.10;99.90;;;;;;5037421;28;20026;-76
2023/09/05 07:25:13;;;;;;;1999.90;999.90;;;18.30;99.90;;;;;;5037324;28;20026;-75
2023/09/05 07:27:39;;;;;;;1999.90;999.90;;;18.70;99.90;;;;;;5037386;28;20032;-75
2023/09/05 07:30:07;;;;;;;1999.90;999.90;;;18.90;99.90;;;;;;5037283;28;20034;-75
2023/09/05 07:32:32;;;;;;;1999.90;999.90;;;19.00;99.90;;;;;;5032516;28;20041;-75
2023/09/05 07:34:58;;;;;;;1999.90;999.90;;;19.10;99.90;;;;;;5015803;28;20121;-76
2023/09/05 07:37:23;;;;;;;1999.90;999.90;;;19.30;99.90;;;;;;5017015;28;20023;-76
2023/09/05 07:39:51;;;;;;;1999.90;999.90;;;19.50;99.90;;;;;;5017514;28;20034;-76
2023/09/05 07:42:17;;;;;;;1999.90;999.90;;;19.70;99.90;;;;;;5017273;28;20484;-75
2023/09/05 07:44:43;;;;;;;1999.90;999.90;;;19.70;99.90;;;;;;5017249;28;20038;-76
2023/09/05 07:47:09;;;;;;;1999.90;999.90;;;20.00;99.90;;;;;;5017220;28;20034;-75
2023/09/05 07:49:40;;;;;;;1999.90;999.90;;;20.20;99.90;;;;;;5032646;28;20495;-76
2023/09/05 07:52:06;;;;;;;1999.90;999.90;;;20.30;99.90;;;;;;5037120;28;20030;-76
2023/09/05 07:54:32;;;;;;;1999.90;999.90;;;20.60;99.90;;;;;;5036866;28;20034;-77
2023/09/05 07:56:57;;;;;;;1999.90;999.90;;;20.70;99.90;;;;;;5037011;28;20034;-75
2023/09/05 07:59:23;;;;;;;1999.90;999.90;;;20.90;99.90;;;;;;5036533;28;20037;-76
2023/09/05 08:01:49;;;;;;;1999.90;999.90;;;21.10;99.90;;;;;;5017930;28;20039;-76
2023/09/05 08:04:14;;;;;;;1999.90;999.90;;;21.30;99.90;;;;;;5017154;28;20044;-77
2023/09/05 08:06:40;;;;;;;1999.90;999.90;;;21.50;99.90;;;;;;5015544;28;20034;-76
2023/09/05 08:09:05;;;;;;;1999.90;999.90;;;21.60;99.90;;;;;;5016661;28;20385;-76
2023/09/05 08:11:31;;;;;;;1999.90;999.90;;;21.70;99.90;;;;;;5016970;28;20046;-77
2023/09/05 08:13:57;;;;;;;1999.90;999.90;;;21.90;99.90;;;;;;5017061;28;20177;-76
2023/09/05 08:16:22;;;;;;;1999.90;999.90;;;22.10;99.90;;;;;;5017107;28;20030;-76
2023/09/05 08:18:48;;;;;;;1999.90;999.90;;;22.10;99.90;;;;;;5015968;28;20088;-77
2023/09/05 08:21:13;;;;;;;1999.90;999.90;;;22.40;99.90;;;;;;5031951;28;20101;-76
2023/09/05 08:23:39;;;;;;;1999.90;999.90;;;22.40;99.90;;;;;;5048080;28;20042;-76
2023/09/05 08:26:10;;;;;;;1999.90;999.90;;;22.50;99.90;;;;;;5016849;28;20035;-77
2023/09/05 08:28:40;;;;;;;1999.90;999.90;;;22.60;99.90;;;;;;5016958;28;20468;-76
2023/09/05 08:31:06;;;;;;;1999.90;999.90;;;22.70;99.90;;;;;;5015346;28;20041;-76
2023/09/05 08:33:31;;;;;;;1999.90;999.90;;;22.90;99.90;;;;;;5016572;28;20396;-76
2023/09/05 08:35:57;;;;;;;1999.90;999.90;;;22.90;99.90;;;;;;5016489;28;20038;-76
2023/09/05 08:38:23;;;;;;;1999.90;999.90;;;23.00;99.90;;;;;;5016528;28;20042;-76
2023/09/05 08:40:48;;;;;;;1999.90;999.90;;;23.10;99.90;;;;;;5016810;28;20026;-76
2023/09/05 08:43:17;;;;;;;1999.90;999.90;;;23.10;99.90;;;;;;5016416;28;20034;-76
2023/09/05 08:45:45;;;;;;;1999.90;999.90;;;23.10;99.90;;;;;;5016428;28;20067;-77
2023/09/05 08:48:10;;;;;;;1999.90;999.90;;;23.30;99.90;;;;;;5015467;28;20064;-76
2023/09/05 08:50:39;;;;;;;1999.90;999.90;;;23.30;99.90;;;;;;5016405;28;20041;-76
2023/09/05 08:53:10;;;;;;;1999.90;999.90;;;23.30;99.70;;;;;;5015886;28;20035;-76
2023/09/05 08:55:38;;;;;;;1999.90;999.90;;;23.50;99.90;;;;;;5016254;28;20027;-77
2023/09/05 08:58:04;;;;;;;1999.90;999.90;;;23.50;99.10;;;;;;5016516;28;20034;-79
2023/09/05 09:00:30;;;;;;;1999.90;999.90;;;23.60;98.80;;;;;;5025874;28;20038;-76
2023/09/05 09:02:56;;;;;;;1999.90;999.90;;;23.70;97.60;;;;;;5036033;28;20037;-75
2023/09/05 09:05:21;;;;;;;1999.90;999.90;;;23.80;99.00;;;;;;5035851;28;20037;-75
2023/09/05 09:07:47;;;;;;;1999.90;999.90;;;24.00;98.70;;;;;;5035249;28;20053;-75
2023/09/05 09:10:21;;;;;;;1999.90;999.90;;;24.10;98.70;;;;;;5035735;28;20053;-76
2023/09/05 09:12:54;;;;;;;1999.90;999.90;;;24.20;97.50;;;;;;5034282;28;20033;-75
2023/09/05 09:15:23;;;;;;;1999.90;999.90;;;24.40;97.60;;;;;;5035621;28;20058;-75
2023/09/05 09:17:51;;;;;;;1999.90;999.90;;;24.50;97.50;;;;;;5029548;28;20034;-75
2023/09/05 09:20:19;;;;;;;1999.90;999.90;;;24.50;95.70;;;;;;5015877;28;20058;-75
2023/09/05 09:22:45;;;;;;;1999.90;999.90;;;24.30;96.60;;;;;;5016102;28;20030;-75
2023/09/05 09:25:20;;;;;;;1999.90;999.90;;;24.40;94.70;;;;;;5034156;28;20030;-77
2023/09/05 09:27:53;;;;;;;1999.90;999.90;;;24.60;96.30;;;;;;5035258;28;20062;-77
2023/09/05 09:30:23;;;;;;;1999.90;999.90;;;24.60;95.90;;;;;;5018687;28;20751;-77
2023/09/05 09:32:51;;;;;;;1999.90;999.90;;;24.80;94.70;;;;;;5016155;28;20752;-77
2023/09/05 09:35:16;;;;;;;1999.90;999.90;;;24.80;94.10;;;;;;5014006;28;20041;-76
2023/09/05 09:37:46;;;;;;;1999.90;999.90;;;24.70;93.80;;;;;;5016064;28;20069;-77
2023/09/05 09:40:12;;;;;;;1999.90;999.90;;;24.90;94.60;;;;;;5030192;28;20046;-77
2023/09/05 09:42:38;;;;;;;1999.90;999.90;;;25.10;94.20;;;;;;5031037;28;20042;-77
2023/09/05 09:45:08;;;;;;;1999.90;999.90;;;25.20;94.10;;;;;;5036039;28;20040;-77
2023/09/05 09:47:34;;;;;;;1999.90;999.90;;;25.20;94.30;;;;;;5035054;28;20125;-76
2023/09/05 09:50:02;;;;;;;1999.90;999.90;;;25.40;94.80;;;;;;5037063;28;20026;-77
2023/09/05 09:52:34;;;;;;;1999.90;999.90;;;25.40;95.10;;;;;;5037638;28;20030;-78
2023/09/05 09:55:05;;;;;;;1999.90;999.90;;;25.40;94.60;;;;;;5035398;28;20116;-78
2023/09/05 09:57:38;;;;;;;1999.90;999.90;;;25.40;93.10;;;;;;5034524;28;20454;-77
2023/09/05 10:00:15;;;;;;;1999.90;999.90;;;25.30;93.60;;;;;;5028610;28;20053;-77
2023/09/05 10:02:43;;;;;;;1999.90;999.90;;;25.60;93.50;;;;;;5016536;28;20085;-77
2023/09/05 10:05:11;;;;;;;1999.90;999.90;;;25.90;92.60;;;;;;5015020;28;20126;-77
2023/09/05 10:07:37;;;;;;;1999.90;999.90;;;26.00;92.50;;;;;;5015795;28;20038;-77
2023/09/05 10:10:05;;;;;;;1999.90;999.90;;;26.00;92.60;;;;;;5026637;28;20092;-76
2023/09/05 10:12:31;;;;;;;1999.90;999.90;;;26.10;93.80;;;;;;5015704;28;20027;-77
2023/09/05 10:15:02;;;;;;;1999.90;999.90;;;26.10;95.30;;;;;;5014747;28;20046;-77
2023/09/05 10:17:31;;;;;;;1999.90;999.90;;;26.20;93.20;;;;;;5014675;28;20089;-76
2023/09/05 10:19:57;;;;;;;1999.90;999.90;;;26.20;92.60;;;;;;5014312;28;20099;-77
2023/09/05 10:22:24;;;;;;;1999.90;999.90;;;26.00;93.50;;;;;;5015519;28;20045;-77
2023/09/05 10:24:50;;;;;;;1999.90;999.90;;;26.10;94.00;;;;;;5012493;28;20027;-77
2023/09/05 10:27:16;;;;;;;1999.90;999.90;;;26.30;93.30;;;;;;5015484;28;20045;-77
2023/09/05 10:29:44;;;;;;;1999.90;999.90;;;26.20;93.00;;;;;;5017113;28;20084;-77
2023/09/05 10:32:13;;;;;;;1999.90;999.90;;;26.10;93.80;;;;;;5035602;28;20037;-79
2023/09/05 10:34:48;;;;;;;1999.90;999.90;;;26.30;93.90;;;;;;5020987;28;21156;-78
2023/09/05 10:37:14;;;;;;;1999.90;999.90;;;26.50;92.70;;;;;;5020720;28;20038;-77
2023/09/05 10:39:48;;;;;;;1999.90;999.90;;;26.60;92.20;;;;;;5021415;28;20042;-78
2023/09/05 10:42:15;;;;;;;1999.90;999.90;;;26.40;92.20;;;;;;5039481;28;20038;-78
2023/09/05 10:44:44;;;;;;;1999.90;999.90;;;26.60;93.00;;;;;;5038927;28;20034;-76
2023/09/05 10:47:27;;;;;;;1999.90;999.90;;;26.70;91.80;;;;;;5036731;28;20030;-77
2023/09/05 10:50:06;;;;;;;1999.90;999.90;;;26.80;93.00;;;;;;5034873;28;20038;-77
2023/09/05 10:52:32;;;;;;;1999.90;999.90;;;27.00;91.40;;;;;;5020329;28;20061;-78
2023/09/05 10:55:18;;;;;;;1999.90;999.90;;;26.90;92.90;;;;;;5018307;28;20077;-78
2023/09/05 10:57:48;;;;;;;1999.90;999.90;;;27.10;91.90;;;;;;5019708;28;20030;-77
2023/09/05 11:00:20;;;;;;;1999.90;999.90;;;27.20;92.10;;;;;;5036674;28;20057;-78
2023/09/05 11:02:47;;;;;;;1999.90;999.90;;;27.30;91.00;;;;;;5039147;28;20030;-77
2023/09/05 11:05:18;;;;;;;1999.90;999.90;;;27.40;91.60;;;;;;5038211;28;20072;-78
2023/09/05 11:07:44;;;;;;;1999.90;999.90;;;27.40;90.70;;;;;;5034663;28;20571;-78
2023/09/05 11:10:29;;;;;;;1999.90;999.90;;;27.40;91.00;;;;;;5017545;28;20066;-79
2023/09/05 11:12:56;;;;;;;1999.90;999.90;;;27.30;90.40;;;;;;5033354;28;20054;-80
2023/09/05 11:15:43;;;;;;;1999.90;999.90;;;27.40;91.60;;;;;;5025587;28;20041;-77
2023/09/05 11:18:10;;;;;;;1999.90;999.90;;;27.40;90.10;;;;;;5029759;28;21620;-77
2023/09/05 11:20:44;;;;;;;1999.90;999.90;;;27.50;90.90;;;;;;5034557;28;20034;-77
2023/09/05 11:23:11;;;;;;;1999.90;999.90;;;27.50;89.30;;;;;;5034045;28;20034;-77
2023/09/05 11:25:47;;;;;;;1999.90;999.90;;;27.60;91.90;;;;;;5051064;28;20038;-77
2023/09/05 11:28:14;;;;;;;1999.90;999.90;;;27.70;89.50;;;;;;5029097;28;20041;-77
2023/09/05 11:30:43;;;;;;;1999.90;999.90;;;27.70;90.50;;;;;;5032322;28;20434;-77
2023/09/05 11:33:10;;;;;;;1999.90;999.90;;;27.60;88.80;;;;;;5033200;28;20056;-77
2023/09/05 11:35:38;;;;;;;1999.90;999.90;;;27.60;88.90;;;;;;5049613;28;20033;-77
2023/09/05 11:38:04;;;;;;;1999.90;999.90;;;27.50;89.00;;;;;;5032038;28;20118;-77
2023/09/05 11:40:30;;;;;;;1999.90;999.90;;;27.60;89.70;;;;;;5031980;28;20068;-77
2023/09/05 11:43:09;;;;;;;1999.90;999.90;;;27.50;88.50;;;;;;5031972;28;20395;-77
2023/09/05 11:45:37;;;;;;;1999.90;999.90;;;27.60;88.80;;;;;;5048715;28;20069;-77
2023/09/05 11:48:04;;;;;;;1999.90;999.90;;;27.60;87.20;;;;;;5032452;28;20039;-76
2023/09/05 11:50:31;;;;;;;1999.90;999.90;;;27.80;88.10;;;;;;5016372;28;20104;-76
2023/09/05 11:53:02;;;;;;;1999.90;999.90;;;27.90;87.40;;;;;;5033231;28;20527;-75
2023/09/05 11:55:29;;;;;;;1999.90;999.90;;;28.30;87.40;;;;;;5036250;28;20038;-75
2023/09/05 11:57:56;;;;;;;1999.90;999.90;;;28.60;87.70;;;;;;5033645;28;20057;-75